sensor_id;sensor_type;location;lat;lon;timestamp;temperature;humidity
56103;DHT22;41970;48.774;9.280;2023-09-08T00:01:26;17.80;99.90
56103;DHT22;41970;48.774;9.280;2023-09-08T00:03:51;17.70;99.90
56103;DHT22;41970;48.774;9.280;2023-09-08T00:06:17;17.70;99.90
56103;DHT22;41970;48.774;9.280;2023-09-08T00:08:43;17.70;99.90
56103;DHT22;41970;48.774;9.280;2023-09-08T00:11:09;17.70;99.90
56103;DHT22;41970;48.774;9.280;2023-09-08T00:13:35;17.70;99.90
56103;DHT22;41970;48.774;9.280;2023-09-08T00:16:01;17.70;99.90
56103;DHT22;41970;48.774;9.280;2023-09-08T00:18:26;17.70;99.90
56103;DHT22;41970;48.774;9.280;2023-09-08T00:20:52;17.60;99.90
56103;DHT22;41970;48.774;9.280;2023-09-08T00:23:18;17.50;99.90
56103;DHT22;41970;48.774;9.280;2023-09-08T00:25:43;17.40;99.90
56103;DHT22;41970;48.774;9.280;2023-09-08T00:28:09;17.40;99.90
56103;DHT22;41970;48.774;9.280;2023-09-08T00:30:35;17.40;99.90
56103;DHT22;41970;48.774;9.280;2023-09-08T00:33:01;17.40;99.90
56103;DHT22;41970;48.774;9.280;2023-09-08T00:35:26;17.40;99.90
56103;DHT22;41970;48.774;9.280;2023-09-08T00:37:52;17.40;99.90
56103;DHT22;41970;48.774;9.280;2023-09-08T00:40:18;17.40;99.90
56103;DHT22;41970;48.774;9.280;2023-09-08T00:42:44;17.40;99.90
56103;DHT22;41970;48.774;9.280;2023-09-08T00:45:09;17.40;99.90
56103;DHT22;41970;48.774;9.280;2023-09-08T00:47:35;17.40;99.90
56103;DHT22;41970;48.774;9.280;2023-09-08T00:50:04;17.30;99.90
56103;DHT22;41970;48.774;9.280;2023-09-08T00:52:30;17.40;99.90
56103;DHT22;41970;48.774;9.280;2023-09-08T00:54:58;17.40;99.90
56103;DHT22;41970;48.774;9.280;2023-09-08T00:57:24;17.30;99.90
56103;DHT22;41970;48.774;9.280;2023-09-08T00:59:50;17.30;99.90
56103;DHT22;41970;48.774;9.280;2023-09-08T01:02:16;17.20;99.90
56103;DHT22;41970;48.774;9.280;2023-09-08T01:04:42;17.20;99.90
56103;DHT22;41970;48.774;9.280;2023-09-08T01:07:09;17.20;99.90
56103;DHT22;41970;48.774;9.280;2023-09-08T01:09:35;17.20;99.90
56103;DHT22;41970;48.774;9.280;2023-09-08T01:12:05;17.20;99.90
56103;DHT22;41970;48.774;9.280;2023-09-08T01:14:32;17.10;99.90
56103;DHT22;41970;48.774;9.280;2023-09-08T01:16:58;17.00;99.90
56103;DHT22;41970;48.774;9.280;2023-09-08T01:19:23;17.00;99.90
56103;DHT22;41970;48.774;9.280;2023-09-08T01:22:17;16.90;99.90
56103;DHT22;41970;48.774;9.280;2023-09-08T01:27:35;16.90;99.90
56103;DHT22;41970;48.774;9.280;2023-09-08T01:30:05;16.90;99.90
56103;DHT22;41970;48.774;9.280;2023-09-08T01:32:32;16.80;99.90
56103;DHT22;41970;48.774;9.280;2023-09-08T01:34:59;16.80;99.90
56103;DHT22;41970;48.774;9.280;2023-09-08T01:37:25;16.80;99.90
56103;DHT22;41970;48.774;9.280;2023-09-08T01:39:51;16.80;99.90
56103;DHT22;41970;48.774;9.280;2023-09-08T01:42:17;16.80;99.90
56103;DHT22;41970;48.774;9.280;2023-09-08T01:44:43;16.70;99.90
56103;DHT22;41970;48.774;9.280;2023-09-08T01:47:08;16.60;99.90
56103;DHT22;41970;48.774;9.280;2023-09-08T01:49:34;16.60;99.90
56103;DHT22;41970;48.774;9.280;2023-09-08T01:52:00;16.50;99.90
56103;DHT22;41970;48.774;9.280;2023-09-08T01:54:26;16.60;99.90
56103;DHT22;41970;48.774;9.280;2023-09-08T01:56:51;16.70;99.90
56103;DHT22;41970;48.774;9.280;2023-09-08T01:59:17;16.70;99.90
56103;DHT22;41970;48.774;9.280;2023-09-08T02:01:43;16.70;99.90
56103;DHT22;41970;48.774;9.280;2023-09-08T02:04:09;16.70;99.90
56103;DHT22;41970;48.774;9.280;2023-09-08T02:06:34;16.70;99.90
56103;DHT22;41970;48.774;9.280;2023-09-08T02:09:00;16.70;99.90
56103;DHT22;41970;48.774;9.280;2023-09-08T02:11:26;16.70;99.90
56103;DHT22;41970;48.774;9.280;2023-09-08T02:13:52;16.70;99.90
56103;DHT22;41970;48.774;9.280;2023-09-08T02:16:18;16.60;99.90
56103;DHT22;41970;48.774;9.280;2023-09-08T02:18:44;16.60;99.90
56103;DHT22;41970;48.774;9.280;2023-09-08T02:21:10;16.50;99.90
56103;DHT22;41970;48.774;9.280;2023-09-08T02:23:36;16.50;99.90
56103;DHT22;41970;48.774;9.280;2023-09-08T02:26:02;16.40;99.90
56103;DHT22;41970;48.774;9.280;2023-09-08T02:28:28;16.30;99.90
56103;DHT22;41970;48.774;9.280;2023-09-08T02:30:54;16.20;99.90
56103;DHT22;41970;48.774;9.280;2023-09-08T02:33:20;16.20;99.90
56103;DHT22;41970;48.774;9.280;2023-09-08T02:35:46;16.20;99.90
56103;DHT22;41970;48.774;9.280;2023-09-08T02:38:12;16.30;99.90
56103;DHT22;41970;48.774;9.280;2023-09-08T02:40:37;16.40;99.90
56103;DHT22;41970;48.774;9.280;2023-09-08T02:43:03;16.50;99.90
56103;DHT22;41970;48.774;9.280;2023-09-08T02:45:29;16.40;99.90
56103;DHT22;41970;48.774;9.280;2023-09-08T02:47:55;16.30;99.90
56103;DHT22;41970;48.774;9.280;2023-09-08T02:50:21;16.30;99.90
56103;DHT22;41970;48.774;9.280;2023-09-08T02:52:47;16.20;99.90
56103;DHT22;41970;48.774;9.280;2023-09-08T02:55:14;16.10;99.90
56103;DHT22;41970;48.774;9.280;2023-09-08T02:57:40;16.10;99.90
56103;DHT22;41970;48.774;9.280;2023-09-08T03:00:06;16.10;99.90
56103;DHT22;41970;48.774;9.280;2023-09-08T03:02:33;16.00;99.90
56103;DHT22;41970;48.774;9.280;2023-09-08T03:04:59;16.10;99.90
56103;DHT22;41970;48.774;9.280;2023-09-08T03:07:26;16.10;99.90
56103;DHT22;41970;48.774;9.280;2023-09-08T03:09:52;16.10;99.90
56103;DHT22;41970;48.774;9.280;2023-09-08T03:12:18;16.10;99.90
56103;DHT22;41970;48.774;9.280;2023-09-08T03:14:44;16.00;99.90
56103;DHT22;41970;48.774;9.280;2023-09-08T03:17:11;16.00;99.90
56103;DHT22;41970;48.774;9.280;2023-09-08T03:19:36;15.90;99.90
56103;DHT22;41970;48.774;9.280;2023-09-08T03:22:02;15.90;99.90
56103;DHT22;41970;48.774;9.280;2023-09-08T03:24:28;15.90;99.90
56103;DHT22;41970;48.774;9.280;2023-09-08T03:26:54;15.90;99.90
56103;DHT22;41970;48.774;9.280;2023-09-08T03:29:20;15.80;99.90
56103;DHT22;41970;48.774;9.280;2023-09-08T03:31:45;15.80;99.90
56103;DHT22;41970;48.774;9.280;2023-09-08T03:34:11;15.70;99.90
56103;DHT22;41970;48.774;9.280;2023-09-08T03:36:38;15.70;99.90
56103;DHT22;41970;48.774;9.280;2023-09-08T03:39:04;15.70;99.90
56103;DHT22;41970;48.774;9.280;2023-09-08T03:41:30;15.70;99.90
56103;DHT22;41970;48.774;9.280;2023-09-08T03:43:55;15.80;99.90
56103;DHT22;41970;48.774;9.280;2023-09-08T03:46:22;15.80;99.90
56103;DHT22;41970;48.774;9.280;2023-09-08T03:48:49;15.80;99.90
56103;DHT22;41970;48.774;9.280;2023-09-08T03:51:15;15.80;99.90
56103;DHT22;41970;48.774;9.280;2023-09-08T03:53:41;15.70;99.90
56103;DHT22;41970;48.774;9.280;2023-09-08T03:56:07;15.60;99.90
56103;DHT22;41970;48.774;9.280;2023-09-08T03:58:32;15.60;99.90
56103;DHT22;41970;48.774;9.280;2023-09-08T04:00:58;15.60;99.90
56103;DHT22;41970;48.774;9.280;2023-09-08T04:03:24;15.60;99.90
56103;DHT22;41970;48.774;9.280;2023-09-08T04:05:50;15.70;99.90
56103;DHT22;41970;48.774;9.280;2023-09-08T04:08:16;15.60;99.90
56103;DHT22;41970;48.774;9.280;2023-09-08T04:10:42;15.60;99.90
56103;DHT22;41970;48.774;9.280;2023-09-08T04:13:07;15.50;99.90
56103;DHT22;41970;48.774;9.280;2023-09-08T04:15:33;15.50;99.90
56103;DHT22;41970;48.774;9.280;2023-09-08T04:17:59;15.50;99.90
56103;DHT22;41970;48.774;9.280;2023-09-08T04:20:25;15.50;99.90
56103;DHT22;41970;48.774;9.280;2023-09-08T04:22:51;15.50;99.90
56103;DHT22;41970;48.774;9.280;2023-09-08T04:25:16;15.50;99.90
56103;DHT22;41970;48.774;9.280;2023-09-08T04:27:42;15.50;99.90
56103;DHT22;41970;48.774;9.280;2023-09-08T04:30:10;15.40;99.90
56103;DHT22;41970;48.774;9.280;2023-09-08T04:32:36;15.40;99.90
56103;DHT22;41970;48.774;9.280;2023-09-08T04:35:03;15.30;99.90
56103;DHT22;41970;48.774;9.280;2023-09-08T04:37:29;15.30;99.90
56103;DHT22;41970;48.774;9.280;2023-09-08T04:39:56;15.40;99.90
56103;DHT22;41970;48.774;9.280;2023-09-08T04:42:22;15.40;99.90
56103;DHT22;41970;48.774;9.280;2023-09-08T04:44:48;15.40;99.90
56103;DHT22;41970;48.774;9.280;2023-09-08T04:47:14;15.40;99.90
56103;DHT22;41970;48.774;9.280;2023-09-08T04:49:40;15.40;99.90
56103;DHT22;41970;48.774;9.280;2023-09-08T04:52:06;15.30;99.90
56103;DHT22;41970;48.774;9.280;2023-09-08T04:54:32;15.30;99.90
56103;DHT22;41970;48.774;9.280;2023-09-08T04:56:58;15.30;99.90
56103;DHT22;41970;48.774;9.280;2023-09-08T04:59:25;15.30;99.90
56103;DHT22;41970;48.774;9.280;2023-09-08T05:01:50;15.20;99.90
56103;DHT22;41970;48.774;9.280;2023-09-08T05:04:17;15.20;99.90
56103;DHT22;41970;48.774;9.280;2023-09-08T05:06:44;15.20;99.90
56103;DHT22;41970;48.774;9.280;2023-09-08T05:09:09;15.20;99.90
56103;DHT22;41970;48.774;9.280;2023-09-08T05:11:35;15.30;99.90
56103;DHT22;41970;48.774;9.280;2023-09-08T05:14:02;15.30;99.90
56103;DHT22;41970;48.774;9.280;2023-09-08T05:16:28;15.30;99.90
56103;DHT22;41970;48.774;9.280;2023-09-08T05:19:10;15.30;99.90
56103;DHT22;41970;48.774;9.280;2023-09-08T05:21:36;15.30;99.90
56103;DHT22;41970;48.774;9.280;2023-09-08T05:24:03;15.30;99.90
56103;DHT22;41970;48.774;9.280;2023-09-08T05:26:29;15.30;99.90
56103;DHT22;41970;48.774;9.280;2023-09-08T05:28:55;15.30;99.90
56103;DHT22;41970;48.774;9.280;2023-09-08T05:31:20;15.30;99.90
56103;DHT22;41970;48.774;9.280;2023-09-08T05:33:46;15.40;99.90
56103;DHT22;41970;48.774;9.280;2023-09-08T05:36:12;15.50;99.90
56103;DHT22;41970;48.774;9.280;2023-09-08T05:38:38;15.50;99.90
56103;DHT22;41970;48.774;9.280;2023-09-08T05:41:03;15.50;99.90
56103;DHT22;41970;48.774;9.280;2023-09-08T05:43:29;15.40;99.90
56103;DHT22;41970;48.774;9.280;2023-09-08T05:45:55;15.40;99.90
56103;DHT22;41970;48.774;9.280;2023-09-08T05:48:21;15.40;99.90
56103;DHT22;41970;48.774;9.280;2023-09-08T05:50:46;15.40;99.90
56103;DHT22;41970;48.774;9.280;2023-09-08T05:53:12;15.40;99.90
56103;DHT22;41970;48.774;9.280;2023-09-08T05:55:39;15.50;99.90
56103;DHT22;41970;48.774;9.280;2023-09-08T05:58:05;15.50;99.90
56103;DHT22;41970;48.774;9.280;2023-09-08T06:00:32;15.60;99.90
56103;DHT22;41970;48.774;9.280;2023-09-08T06:02:58;15.60;99.90
56103;DHT22;41970;48.774;9.280;2023-09-08T06:05:24;15.60;99.90
56103;DHT22;41970;48.774;9.280;2023-09-08T06:07:50;15.60;99.90
56103;DHT22;41970;48.774;9.280;2023-09-08T06:10:16;15.70;99.90
56103;DHT22;41970;48.774;9.280;2023-09-08T06:12:41;15.80;99.90
56103;DHT22;41970;48.774;9.280;2023-09-08T06:15:08;15.90;99.90
56103;DHT22;41970;48.774;9.280;2023-09-08T06:17:34;15.90;99.90
56103;DHT22;41970;48.774;9.280;2023-09-08T06:20:00;16.00;99.90
56103;DHT22;41970;48.774;9.280;2023-09-08T06:22:25;16.10;99.90
56103;DHT22;41970;48.774;9.280;2023-09-08T06:24:51;16.20;99.90
56103;DHT22;41970;48.774;9.280;2023-09-08T06:27:17;16.30;99.90
56103;DHT22;41970;48.774;9.280;2023-09-08T06:29:43;16.40;99.90
56103;DHT22;41970;48.774;9.280;2023-09-08T06:32:11;16.50;99.90
56103;DHT22;41970;48.774;9.280;2023-09-08T06:34:37;16.50;99.90
56103;DHT22;41970;48.774;9.280;2023-09-08T06:37:03;16.60;99.90
56103;DHT22;41970;48.774;9.280;2023-09-08T06:39:29;16.70;99.90
56103;DHT22;41970;48.774;9.280;2023-09-08T06:41:55;16.80;99.90
56103;DHT22;41970;48.774;9.280;2023-09-08T06:44:21;16.90;99.90
56103;DHT22;41970;48.774;9.280;2023-09-08T06:46:46;16.90;99.90
56103;DHT22;41970;48.774;9.280;2023-09-08T06:49:12;17.00;99.90
56103;DHT22;41970;48.774;9.280;2023-09-08T06:51:38;17.10;99.90
56103;DHT22;41970;48.774;9.280;2023-09-08T06:54:04;17.10;99.90
56103;DHT22;41970;48.774;9.280;2023-09-08T06:56:30;17.20;99.90
56103;DHT22;41970;48.774;9.280;2023-09-08T06:58:56;17.30;99.90
56103;DHT22;41970;48.774;9.280;2023-09-08T07:01:26;17.40;99.90
56103;DHT22;41970;48.774;9.280;2023-09-08T07:03:51;17.50;99.90
56103;DHT22;41970;48.774;9.280;2023-09-08T07:06:17;17.60;99.90
56103;DHT22;41970;48.774;9.280;2023-09-08T07:08:43;17.70;99.90
56103;DHT22;41970;48.774;9.280;2023-09-08T07:11:09;17.80;99.90
56103;DHT22;41970;48.774;9.280;2023-09-08T07:13:35;17.90;99.90
56103;DHT22;41970;48.774;9.280;2023-09-08T07:16:00;18.00;99.90
56103;DHT22;41970;48.774;9.280;2023-09-08T07:18:26;18.10;99.90
56103;DHT22;41970;48.774;9.280;2023-09-08T07:20:52;18.30;99.90
56103;DHT22;41970;48.774;9.280;2023-09-08T07:23:18;18.40;99.90
56103;DHT22;41970;48.774;9.280;2023-09-08T07:25:50;18.70;99.90
56103;DHT22;41970;48.774;9.280;2023-09-08T07:28:16;19.00;99.90
56103;DHT22;41970;48.774;9.280;2023-09-08T07:30:42;19.50;99.90
56103;DHT22;41970;48.774;9.280;2023-09-08T07:33:09;20.20;99.90
56103;DHT22;41970;48.774;9.280;2023-09-08T07:35:41;20.70;99.90
56103;DHT22;41970;48.774;9.280;2023-09-08T07:38:07;20.90;99.90
56103;DHT22;41970;48.774;9.280;2023-09-08T07:40:33;21.50;99.90
56103;DHT22;41970;48.774;9.280;2023-09-08T07:42:59;22.30;99.90
56103;DHT22;41970;48.774;9.280;2023-09-08T07:45:25;22.90;99.90
56103;DHT22;41970;48.774;9.280;2023-09-08T07:47:51;23.50;99.90
56103;DHT22;41970;48.774;9.280;2023-09-08T07:50:25;24.20;99.90
56103;DHT22;41970;48.774;9.280;2023-09-08T07:52:52;24.70;99.90
56103;DHT22;41970;48.774;9.280;2023-09-08T07:55:18;25.30;99.90
56103;DHT22;41970;48.774;9.280;2023-09-08T07:57:45;25.40;99.90
56103;DHT22;41970;48.774;9.280;2023-09-08T08:00:12;25.60;99.90
56103;DHT22;41970;48.774;9.280;2023-09-08T08:02:43;25.80;99.90
56103;DHT22;41970;48.774;9.280;2023-09-08T08:05:11;26.10;99.90
56103;DHT22;41970;48.774;9.280;2023-09-08T08:07:38;25.70;99.30
56103;DHT22;41970;48.774;9.280;2023-09-08T08:10:05;25.90;99.90
56103;DHT22;41970;48.774;9.280;2023-09-08T08:12:31;25.60;99.90
56103;DHT22;41970;48.774;9.280;2023-09-08T08:14:57;25.10;99.90
56103;DHT22;41970;48.774;9.280;2023-09-08T08:17:24;25.20;99.90
56103;DHT22;41970;48.774;9.280;2023-09-08T08:19:51;24.80;99.90
56103;DHT22;41970;48.774;9.280;2023-09-08T08:22:16;24.90;99.90
56103;DHT22;41970;48.774;9.280;2023-09-08T08:24:42;25.70;99.90
56103;DHT22;41970;48.774;9.280;2023-09-08T08:27:08;26.40;99.90
56103;DHT22;41970;48.774;9.280;2023-09-08T08:29:33;26.50;99.00
56103;DHT22;41970;48.774;9.280;2023-09-08T08:31:59;26.40;98.00
56103;DHT22;41970;48.774;9.280;2023-09-08T08:34:25;26.00;98.70
56103;DHT22;41970;48.774;9.280;2023-09-08T08:36:51;26.60;97.60
56103;DHT22;41970;48.774;9.280;2023-09-08T08:39:16;26.80;97.50
56103;DHT22;41970;48.774;9.280;2023-09-08T08:41:43;27.50;97.70
56103;DHT22;41970;48.774;9.280;2023-09-08T08:44:09;28.00;96.40
56103;DHT22;41970;48.774;9.280;2023-09-08T08:46:36;28.30;95.60
56103;DHT22;41970;48.774;9.280;2023-09-08T08:49:06;28.50;96.10
56103;DHT22;41970;48.774;9.280;2023-09-08T08:51:32;28.90;94.50
56103;DHT22;41970;48.774;9.280;2023-09-08T08:54:01;29.20;95.40
56103;DHT22;41970;48.774;9.280;2023-09-08T08:56:31;29.20;94.80
56103;DHT22;41970;48.774;9.280;2023-09-08T08:58:58;29.40;94.20
56103;DHT22;41970;48.774;9.280;2023-09-08T09:01:25;29.60;93.00
56103;DHT22;41970;48.774;9.280;2023-09-08T09:03:51;29.50;92.90
56103;DHT22;41970;48.774;9.280;2023-09-08T09:06:18;29.60;93.80
56103;DHT22;41970;48.774;9.280;2023-09-08T09:08:44;29.70;93.70
56103;DHT22;41970;48.774;9.280;2023-09-08T09:11:11;29.60;92.60
56103;DHT22;41970;48.774;9.280;2023-09-08T09:13:37;29.40;92.70
56103;DHT22;41970;48.774;9.280;2023-09-08T09:16:03;29.60;93.50
56103;DHT22;41970;48.774;9.280;2023-09-08T09:18:30;29.80;92.40
56103;DHT22;41970;48.774;9.280;2023-09-08T09:20:59;30.00;91.90
56103;DHT22;41970;48.774;9.280;2023-09-08T09:23:35;29.80;92.20
56103;DHT22;41970;48.774;9.280;2023-09-08T09:26:02;30.00;92.80
56103;DHT22;41970;48.774;9.280;2023-09-08T09:28:29;29.90;92.40
56103;DHT22;41970;48.774;9.280;2023-09-08T09:30:55;29.80;92.50
56103;DHT22;41970;48.774;9.280;2023-09-08T09:33:22;29.90;92.20
56103;DHT22;41970;48.774;9.280;2023-09-08T09:35:50;30.00;92.00
56103;DHT22;41970;48.774;9.280;2023-09-08T09:38:19;29.90;92.20
56103;DHT22;41970;48.774;9.280;2023-09-08T09:40:45;29.90;93.40
56103;DHT22;41970;48.774;9.280;2023-09-08T09:43:12;30.10;92.70
56103;DHT22;41970;48.774;9.280;2023-09-08T09:45:39;30.20;93.20
56103;DHT22;41970;48.774;9.280;2023-09-08T09:48:06;30.40;92.30
56103;DHT22;41970;48.774;9.280;2023-09-08T09:50:37;30.50;92.00
56103;DHT22;41970;48.774;9.280;2023-09-08T09:53:14;30.50;92.10
56103;DHT22;41970;48.774;9.280;2023-09-08T09:55:42;30.60;92.20
56103;DHT22;41970;48.774;9.280;2023-09-08T09:58:09;30.70;92.30
56103;DHT22;41970;48.774;9.280;2023-09-08T10:00:36;30.60;92.50
56103;DHT22;41970;48.774;9.280;2023-09-08T10:03:13;30.40;93.30
56103;DHT22;41970;48.774;9.280;2023-09-08T10:05:39;30.40;92.50
56103;DHT22;41970;48.774;9.280;2023-09-08T10:08:05;30.20;92.20
56103;DHT22;41970;48.774;9.280;2023-09-08T10:10:33;30.10;92.30
56103;DHT22;41970;48.774;9.280;2023-09-08T10:13:03;30.10;92.40
56103;DHT22;41970;48.774;9.280;2023-09-08T10:15:31;30.10;92.40
56103;DHT22;41970;48.774;9.280;2023-09-08T10:17:57;29.90;93.30
56103;DHT22;41970;48.774;9.280;2023-09-08T10:20:26;29.60;93.10
56103;DHT22;41970;48.774;9.280;2023-09-08T10:23:31;29.70;92.90
56103;DHT22;41970;48.774;9.280;2023-09-08T10:26:02;29.50;93.10
56103;DHT22;41970;48.774;9.280;2023-09-08T10:28:31;29.40;93.50
56103;DHT22;41970;48.774;9.280;2023-09-08T10:30:58;29.40;93.30
56103;DHT22;41970;48.774;9.280;2023-09-08T10:33:25;29.00;93.20
56103;DHT22;41970;48.774;9.280;2023-09-08T10:35:52;28.80;94.30
56103;DHT22;41970;48.774;9.280;2023-09-08T10:38:22;29.10;93.80
56103;DHT22;41970;48.774;9.280;2023-09-08T10:40:49;29.20;93.50
56103;DHT22;41970;48.774;9.280;2023-09-08T10:43:15;29.20;93.40
56103;DHT22;41970;48.774;9.280;2023-09-08T10:45:41;29.30;93.10
56103;DHT22;41970;48.774;9.280;2023-09-08T10:48:07;29.20;93.30
56103;DHT22;41970;48.774;9.280;2023-09-08T10:50:35;29.40;93.00
56103;DHT22;41970;48.774;9.280;2023-09-08T10:53:05;29.50;92.90
56103;DHT22;41970;48.774;9.280;2023-09-08T10:58:11;29.10;93.20
56103;DHT22;41970;48.774;9.280;2023-09-08T11:00:47;29.10;93.30
56103;DHT22;41970;48.774;9.280;2023-09-08T11:03:13;29.20;93.30
56103;DHT22;41970;48.774;9.280;2023-09-08T11:05:41;29.00;93.30
56103;DHT22;41970;48.774;9.280;2023-09-08T11:08:08;28.90;93.20
56103;DHT22;41970;48.774;9.280;2023-09-08T11:10:34;29.00;93.50
56103;DHT22;41970;48.774;9.280;2023-09-08T11:13:01;29.10;93.30
56103;DHT22;41970;48.774;9.280;2023-09-08T11:15:28;29.20;93.20
56103;DHT22;41970;48.774;9.280;2023-09-08T11:17:55;29.20;93.30
56103;DHT22;41970;48.774;9.280;2023-09-08T11:20:27;29.00;93.40
56103;DHT22;41970;48.774;9.280;2023-09-08T11:22:54;28.60;93.90
56103;DHT22;41970;48.774;9.280;2023-09-08T11:25:20;28.60;94.00
56103;DHT22;41970;48.774;9.280;2023-09-08T11:27:46;28.90;93.70
56103;DHT22;41970;48.774;9.280;2023-09-08T11:30:12;28.90;93.50
56103;DHT22;41970;48.774;9.280;2023-09-08T11:32:38;28.60;93.60
56103;DHT22;41970;48.774;9.280;2023-09-08T11:35:06;28.60;93.80
56103;DHT22;41970;48.774;9.280;2023-09-08T11:37:36;28.80;93.80
56103;DHT22;41970;48.774;9.280;2023-09-08T11:40:04;28.90;93.60
56103;DHT22;41970;48.774;9.280;2023-09-08T11:42:34;28.70;93.70
56103;DHT22;41970;48.774;9.280;2023-09-08T11:45:00;28.80;93.70
56103;DHT22;41970;48.774;9.280;2023-09-08T11:47:29;28.90;93.30
56103;DHT22;41970;48.774;9.280;2023-09-08T11:49:55;29.00;93.40
56103;DHT22;41970;48.774;9.280;2023-09-08T11:52:23;29.10;94.10
56103;DHT22;41970;48.774;9.280;2023-09-08T11:54:50;28.70;94.90
56103;DHT22;41970;48.774;9.280;2023-09-08T11:57:17;28.70;95.10
56103;DHT22;41970;48.774;9.280;2023-09-08T11:59:43;28.70;94.90
56103;DHT22;41970;48.774;9.280;2023-09-08T12:02:12;28.80;94.80
56103;DHT22;41970;48.774;9.280;2023-09-08T12:04:37;28.90;94.50
56103;DHT22;41970;48.774;9.280;2023-09-08T12:07:04;28.90;94.20
56103;DHT22;41970;48.774;9.280;2023-09-08T12:09:30;28.80;94.10
56103;DHT22;41970;48.774;9.280;2023-09-08T12:11:58;28.70;94.20
56103;DHT22;41970;48.774;9.280;2023-09-08T12:14:27;28.70;94.30
56103;DHT22;41970;48.774;9.280;2023-09-08T12:17:05;28.90;93.90
56103;DHT22;41970;48.774;9.280;2023-09-08T12:19:35;28.90;93.90
56103;DHT22;41970;48.774;9.280;2023-09-08T12:22:05;28.90;93.90
56103;DHT22;41970;48.774;9.280;2023-09-08T12:25:09;28.90;93.90
56103;DHT22;41970;48.774;9.280;2023-09-08T12:27:36;29.00;93.40
56103;DHT22;41970;48.774;9.280;2023-09-08T12:30:03;29.10;93.30
56103;DHT22;41970;48.774;9.280;2023-09-08T12:32:33;29.10;93.40
56103;DHT22;41970;48.774;9.280;2023-09-08T12:35:03;29.20;93.80
56103;DHT22;41970;48.774;9.280;2023-09-08T12:37:30;29.30;93.40
56103;DHT22;41970;48.774;9.280;2023-09-08T12:39:58;29.30;93.20
56103;DHT22;41970;48.774;9.280;2023-09-08T12:42:26;29.30;93.30
56103;DHT22;41970;48.774;9.280;2023-09-08T12:44:55;29.20;93.10
56103;DHT22;41970;48.774;9.280;2023-09-08T12:47:21;29.30;93.30
56103;DHT22;41970;48.774;9.280;2023-09-08T12:49:46;29.30;92.90
56103;DHT22;41970;48.774;9.280;2023-09-08T12:52:12;29.10;93.20
56103;DHT22;41970;48.774;9.280;2023-09-08T12:54:38;29.20;92.60
56103;DHT22;41970;48.774;9.280;2023-09-08T12:57:04;29.00;92.40
56103;DHT22;41970;48.774;9.280;2023-09-08T12:59:30;29.00;92.70
56103;DHT22;41970;48.774;9.280;2023-09-08T13:01:56;29.20;92.30
56103;DHT22;41970;48.774;9.280;2023-09-08T13:04:23;29.30;92.30
56103;DHT22;41970;48.774;9.280;2023-09-08T13:06:49;29.20;92.10
56103;DHT22;41970;48.774;9.280;2023-09-08T13:09:15;29.40;92.00
56103;DHT22;41970;48.774;9.280;2023-09-08T13:11:42;29.50;91.60
56103;DHT22;41970;48.774;9.280;2023-09-08T13:14:08;29.60;91.60
56103;DHT22;41970;48.774;9.280;2023-09-08T13:16:33;29.60;91.90
56103;DHT22;41970;48.774;9.280;2023-09-08T13:18:59;29.40;91.60
56103;DHT22;41970;48.774;9.280;2023-09-08T13:21:25;29.40;92.10
56103;DHT22;41970;48.774;9.280;2023-09-08T13:23:51;29.40;91.80
56103;DHT22;41970;48.774;9.280;2023-09-08T13:26:17;29.50;91.40
56103;DHT22;41970;48.774;9.280;2023-09-08T13:28:42;29.60;91.20
56103;DHT22;41970;48.774;9.280;2023-09-08T13:31:08;29.70;91.10
56103;DHT22;41970;48.774;9.280;2023-09-08T13:33:34;29.50;91.20
56103;DHT22;41970;48.774;9.280;2023-09-08T13:36:00;29.60;91.00
56103;DHT22;41970;48.774;9.280;2023-09-08T13:38:26;29.60;90.70
56103;DHT22;41970;48.774;9.280;2023-09-08T13:40:51;29.50;91.10
56103;DHT22;41970;48.774;9.280;2023-09-08T13:43:18;29.60;90.70
56103;DHT22;41970;48.774;9.280;2023-09-08T13:45:44;29.40;90.90
56103;DHT22;41970;48.774;9.280;2023-09-08T13:48:10;29.40;90.50
56103;DHT22;41970;48.774;9.280;2023-09-08T13:50:38;29.60;90.20
56103;DHT22;41970;48.774;9.280;2023-09-08T13:53:05;29.70;90.10
56103;DHT22;41970;48.774;9.280;2023-09-08T13:55:30;29.80;90.00
56103;DHT22;41970;48.774;9.280;2023-09-08T13:57:56;29.90;89.90
56103;DHT22;41970;48.774;9.280;2023-09-08T14:00:22;29.90;90.60
56103;DHT22;41970;48.774;9.280;2023-09-08T14:02:48;29.80;90.60
56103;DHT22;41970;48.774;9.280;2023-09-08T14:05:13;29.90;90.70
56103;DHT22;41970;48.774;9.280;2023-09-08T14:07:39;29.80;90.90
56103;DHT22;41970;48.774;9.280;2023-09-08T14:10:05;29.60;90.40
56103;DHT22;41970;48.774;9.280;2023-09-08T14:12:33;29.60;90.10
56103;DHT22;41970;48.774;9.280;2023-09-08T14:14:59;29.60;90.80
56103;DHT22;41970;48.774;9.280;2023-09-08T14:17:25;29.70;91.50
56103;DHT22;41970;48.774;9.280;2023-09-08T14:19:50;29.80;91.40
56103;DHT22;41970;48.774;9.280;2023-09-08T14:22:16;30.00;90.80
56103;DHT22;41970;48.774;9.280;2023-09-08T14:24:42;30.20;91.10
56103;DHT22;41970;48.774;9.280;2023-09-08T14:27:07;30.10;91.10
56103;DHT22;41970;48.774;9.280;2023-09-08T14:29:34;30.10;91.10
56103;DHT22;41970;48.774;9.280;2023-09-08T14:31:59;30.10;91.20
56103;DHT22;41970;48.774;9.280;2023-09-08T14:34:25;30.30;91.50
56103;DHT22;41970;48.774;9.280;2023-09-08T14:36:51;30.10;90.90
56103;DHT22;41970;48.774;9.280;2023-09-08T14:39:16;29.80;90.70
56103;DHT22;41970;48.774;9.280;2023-09-08T14:41:45;29.90;91.20
56103;DHT22;41970;48.774;9.280;2023-09-08T14:44:10;30.00;91.30
56103;DHT22;41970;48.774;9.280;2023-09-08T14:46:36;30.10;91.30
56103;DHT22;41970;48.774;9.280;2023-09-08T14:49:02;30.10;91.10
56103;DHT22;41970;48.774;9.280;2023-09-08T14:51:28;30.10;90.80
56103;DHT22;41970;48.774;9.280;2023-09-08T14:53:54;30.30;89.30
56103;DHT22;41970;48.774;9.280;2023-09-08T14:56:19;30.40;89.40
56103;DHT22;41970;48.774;9.280;2023-09-08T14:58:45;30.40;90.20
56103;DHT22;41970;48.774;9.280;2023-09-08T15:01:11;30.30;90.10
56103;DHT22;41970;48.774;9.280;2023-09-08T15:03:39;30.30;90.40
56103;DHT22;41970;48.774;9.280;2023-09-08T15:06:05;30.40;90.30
56103;DHT22;41970;48.774;9.280;2023-09-08T15:08:31;30.30;90.30
56103;DHT22;41970;48.774;9.280;2023-09-08T15:10:57;30.30;90.40
56103;DHT22;41970;48.774;9.280;2023-09-08T15:13:23;30.20;90.90
56103;DHT22;41970;48.774;9.280;2023-09-08T15:15:48;30.10;91.30
56103;DHT22;41970;48.774;9.280;2023-09-08T15:18:14;30.10;90.80
56103;DHT22;41970;48.774;9.280;2023-09-08T15:20:50;30.00;88.70
56103;DHT22;41970;48.774;9.280;2023-09-08T15:23:16;30.00;90.60
56103;DHT22;41970;48.774;9.280;2023-09-08T15:25:42;29.90;90.90
56103;DHT22;41970;48.774;9.280;2023-09-08T15:28:15;29.80;91.20
56103;DHT22;41970;48.774;9.280;2023-09-08T15:30:49;29.90;91.40
56103;DHT22;41970;48.774;9.280;2023-09-08T15:33:15;29.80;91.30